page 4929 of 1015016 registered users

eBook PostsUsers

  1. 0ball66goal registered @ 2012-12-14 14:34:52, last login @ 2012-12-14 14:34:52
  2. 0fridayfather73 registered @ 2012-12-14 14:35:34, last login @ 2012-12-14 14:35:34
  3. 0tonguepruner0 registered @ 2012-12-14 14:35:49, last login @ 2012-12-14 14:35:49
  4. 0hubcapstage9 registered @ 2012-12-14 14:37:36, last login @ 2012-12-14 14:37:36
  5. 0italy79litter registered @ 2012-12-14 14:39:23, last login @ 2012-12-14 14:39:23
  6. 0roll0panty registered @ 2012-12-14 14:39:24, last login @ 2012-12-14 14:39:24
  7. 0time80clef registered @ 2012-12-14 14:40:02, last login @ 2012-12-14 14:40:02
  8. 0dew8spoon registered @ 2012-12-14 14:40:55, last login @ 2012-12-14 14:40:55
  9. 0saw2oil registered @ 2012-12-14 14:41:30, last login @ 2012-12-14 14:41:30
  10. 0end1fired registered @ 2012-12-14 14:42:42, last login @ 2012-12-14 14:42:42
  11. 0ygh7sxj9o registered @ 2012-12-14 14:44:20, last login @ 2012-12-14 14:44:20
  12. 0workdonna86 registered @ 2012-12-14 14:47:07, last login @ 2012-12-14 14:47:07
  13. 0spade57giant registered @ 2012-12-14 14:49:41, last login @ 2012-12-14 14:49:41
  14. 0shoe5canvas registered @ 2012-12-14 14:49:42, last login @ 2012-12-14 14:49:42
  15. 0citytie94 registered @ 2012-12-14 14:50:09, last login @ 2012-12-14 14:50:09
  16. 0sailor0place registered @ 2012-12-14 14:50:35, last login @ 2012-12-14 14:50:35
  17. 0clover24hammer registered @ 2012-12-14 14:50:42, last login @ 2012-12-14 14:50:42
  18. 0court9wool registered @ 2012-12-14 14:51:24, last login @ 2012-12-14 14:51:24
  19. 0plierneedle09 registered @ 2012-12-14 14:52:28, last login @ 2012-12-14 14:52:28
  20. 0aircic registered @ 2012-12-14 14:52:40, last login @ 2012-12-14 14:53:13
  21. 0wasp61noodle registered @ 2012-12-14 14:53:01, last login @ 2012-12-14 14:53:01
  22. 0trip78hill registered @ 2012-12-14 14:54:07, last login @ 2012-12-14 14:54:07
  23. 0foamskate66 registered @ 2012-12-14 14:54:10, last login @ 2012-12-14 14:54:10
  24. 0mark9larch registered @ 2012-12-14 14:54:18, last login @ 2012-12-14 14:54:18
  25. 0kevinllama20 registered @ 2012-12-14 14:54:45, last login @ 2012-12-14 14:54:45
  26. 0summer63buffer registered @ 2012-12-14 14:54:52, last login @ 2012-12-14 14:54:52
  27. 0hedgeglider57 registered @ 2012-12-14 14:55:11, last login @ 2012-12-14 14:55:11
  28. 0tubasoccer13 registered @ 2012-12-14 14:57:49, last login @ 2012-12-14 14:57:49
  29. 0clefrandom8 registered @ 2012-12-14 14:59:26, last login @ 2012-12-14 14:59:26
  30. 0ticketshell3 registered @ 2012-12-14 14:59:55, last login @ 2012-12-14 14:59:55
  31. 0cobwebcamera5 registered @ 2012-12-14 15:01:18, last login @ 2012-12-14 15:01:18
  32. 0sponge56wire registered @ 2012-12-14 15:01:41, last login @ 2012-12-14 15:01:41
  33. 0sealpark5 registered @ 2012-12-14 15:03:02, last login @ 2012-12-14 15:03:02
  34. 0pen7insect registered @ 2012-12-14 15:03:16, last login @ 2012-12-14 15:03:16
  35. 0bladepyjama20 registered @ 2012-12-14 15:05:26, last login @ 2012-12-14 15:05:26
  36. 0branchthroat7 registered @ 2012-12-14 15:06:18, last login @ 2012-12-14 15:06:18
  37. 0betty94rake registered @ 2012-12-14 15:06:30, last login @ 2012-12-14 15:20:44
  38. 0ship1tip registered @ 2012-12-14 15:08:07, last login @ 2012-12-14 15:08:07
  39. 0faucet37smoke registered @ 2012-12-14 15:08:21, last login @ 2012-12-14 15:08:21
  40. 0vasebrand05 registered @ 2012-12-14 15:08:33, last login @ 2012-12-14 16:00:49
  41. 0sizekendo0 registered @ 2012-12-14 15:08:42, last login @ 2012-12-14 15:08:42
  42. 0heart2pantry registered @ 2012-12-14 15:09:03, last login @ 2012-12-14 15:09:03
  43. 0walrus82lawyer registered @ 2012-12-14 15:09:38, last login @ 2012-12-14 15:09:38
  44. 0ovenkarate43 registered @ 2012-12-14 15:09:42, last login @ 2012-12-14 15:09:42
  45. 0cheftext6 registered @ 2012-12-14 15:10:19, last login @ 2012-12-14 15:10:19
  46. 0joke4pig registered @ 2012-12-14 15:10:20, last login @ 2012-12-14 15:21:40
  47. 0hookorder87 registered @ 2012-12-14 15:10:25, last login @ 2012-12-14 15:10:25
  48. 0heaven93cloth registered @ 2012-12-14 15:10:48, last login @ 2012-12-14 15:10:48
  49. 0kevincanvas2 registered @ 2012-12-14 15:11:44, last login @ 2012-12-14 15:11:44
  50. 0summermother94 registered @ 2012-12-14 15:12:03, last login @ 2012-12-14 15:35:12
  51. 0heatlaugh1 registered @ 2012-12-14 15:12:47, last login @ 2012-12-14 15:36:11
  52. 0silkrange44 registered @ 2012-12-14 15:13:44, last login @ 2012-12-14 15:13:44
  53. 0unit8comma registered @ 2012-12-14 15:13:53, last login @ 2012-12-14 15:13:53
  54. 0erahair1 registered @ 2012-12-14 15:16:41, last login @ 2012-12-14 15:16:41
  55. 0stempacket5 registered @ 2012-12-14 15:17:00, last login @ 2012-12-14 15:17:00
  56. 0caroltramp31 registered @ 2012-12-14 15:19:46, last login @ 2012-12-14 15:19:46
  57. 0radarweek2 registered @ 2012-12-14 15:21:22, last login @ 2012-12-14 15:21:22
  58. 0breath0pig registered @ 2012-12-14 15:21:32, last login @ 2012-12-14 15:21:32
  59. 0weijianguo registered @ 2012-12-14 15:22:35, last login @ 2012-12-14 15:25:22
  60. 0blackjumper5 registered @ 2012-12-14 15:23:03, last login @ 2012-12-14 15:23:03
  61. 0bull48waste registered @ 2012-12-14 15:23:32, last login @ 2012-12-14 15:45:08
  62. 0xczfrlyin registered @ 2012-12-14 15:25:34, last login @ 2012-12-14 15:25:34
  63. 0pillowhair9 registered @ 2012-12-14 15:26:23, last login @ 2012-12-14 15:47:06
  64. 0tray6neck registered @ 2012-12-14 15:27:07, last login @ 2012-12-14 15:27:07
  65. 0debt6bangle registered @ 2012-12-14 15:27:29, last login @ 2012-12-14 15:27:29
  66. 0feetfibre1 registered @ 2012-12-14 15:27:49, last login @ 2012-12-14 15:27:49
  67. 0lionspoon8 registered @ 2012-12-14 15:28:01, last login @ 2012-12-14 15:28:01
  68. 0dustweapon5 registered @ 2012-12-14 15:28:09, last login @ 2012-12-14 15:28:09
  69. 0mariaseat2 registered @ 2012-12-14 15:28:11, last login @ 2012-12-14 15:47:48
  70. 0dangerchill4 registered @ 2012-12-14 15:28:33, last login @ 2012-12-14 15:28:33
  71. 0mallsalary40 registered @ 2012-12-14 15:30:15, last login @ 2012-12-14 15:30:15
  72. 0offerdamage79 registered @ 2012-12-14 15:30:19, last login @ 2012-12-14 15:52:05
  73. 0screen24rise registered @ 2012-12-14 15:31:16, last login @ 2012-12-14 15:31:16
  74. 0gori registered @ 2012-12-14 15:31:24, last login @ 2012-12-14 15:31:24
  75. 0pipe82olive registered @ 2012-12-14 15:33:02, last login @ 2012-12-14 15:33:02
  76. 0debtmint32 registered @ 2012-12-14 15:35:22, last login @ 2012-12-14 15:35:22
  77. 0burma88head registered @ 2012-12-14 15:35:48, last login @ 2012-12-14 15:35:48
  78. 0greasejumbo71 registered @ 2012-12-14 15:36:29, last login @ 2012-12-14 15:36:29
  79. 0button0skiing registered @ 2012-12-14 15:37:20, last login @ 2012-12-14 15:37:20
  80. 0cheese83korean registered @ 2012-12-14 15:38:21, last login @ 2012-12-14 15:38:21
  81. 0blowend75 registered @ 2012-12-14 15:39:43, last login @ 2012-12-14 15:39:43
  82. 0north4clover registered @ 2012-12-14 15:42:36, last login @ 2012-12-14 15:42:36
  83. 0battlesphere41 registered @ 2012-12-14 15:42:36, last login @ 2012-12-14 15:42:36
  84. 0patchweed48 registered @ 2012-12-14 15:43:17, last login @ 2012-12-14 15:43:17
  85. 0quincejeep1 registered @ 2012-12-14 15:45:29, last login @ 2012-12-14 15:45:29
  86. 0ls0001xj registered @ 2012-12-14 15:46:15, last login @ 2012-12-14 15:53:15
  87. 0cellar8racing registered @ 2012-12-14 15:47:41, last login @ 2012-12-14 15:47:41
  88. 0fangbroker25 registered @ 2012-12-14 15:47:53, last login @ 2012-12-14 15:47:53
  89. 0foot0blouse registered @ 2012-12-14 15:48:01, last login @ 2012-12-14 15:48:01
  90. 0ship6son registered @ 2012-12-14 15:49:08, last login @ 2012-12-14 15:49:08
  91. 0fang3step registered @ 2012-12-14 15:51:46, last login @ 2012-12-14 15:51:46
  92. 0islandsalt3 registered @ 2012-12-14 15:56:49, last login @ 2012-12-14 15:56:49
  93. 0cribcrow7 registered @ 2012-12-14 15:57:13, last login @ 2012-12-14 15:57:13
  94. 0lyrepart56 registered @ 2012-12-14 15:58:47, last login @ 2012-12-14 15:58:47
  95. 0alarmpowder34 registered @ 2012-12-14 16:00:12, last login @ 2012-12-14 16:00:12
  96. 0kwcueomar registered @ 2012-12-14 16:01:26, last login @ 2012-12-14 16:01:26
  97. 0kickhockey24 registered @ 2012-12-14 16:01:52, last login @ 2012-12-14 16:20:22
  98. 0targetdimple22 registered @ 2012-12-14 16:04:05, last login @ 2012-12-14 16:04:05
  99. 0baeikrerg registered @ 2012-12-14 16:04:16, last login @ 2012-12-14 16:04:16
  100. 0cereal79work registered @ 2012-12-14 16:04:38, last login @ 2012-12-14 16:56:57
  101. 0biteshock39 registered @ 2012-12-14 16:04:41, last login @ 2012-12-14 16:04:41

More...

[4939] [4938] [4937] [4936] [4935] [4934] [4933] [4932] [4931] [4930] [4929] [4928] [4927] [4926] [4925] [4924] [4923] [4922] [4921] [4920] ...[1]
Back to Top